createdAt,value
2022-12-15T00:02:05.710Z,30.20
2022-12-15T00:04:50.840Z,22.48
2022-12-15T00:07:35.776Z,19.75
2022-12-15T00:10:20.607Z,26.05
2022-12-15T00:13:05.483Z,29.02
2022-12-15T00:15:50.253Z,28.33
2022-12-15T00:18:35.177Z,22.27
2022-12-15T00:21:19.959Z,31.58
2022-12-15T00:24:04.985Z,28.45
2022-12-15T00:26:50.258Z,24.15
2022-12-15T00:29:35.116Z,28.27
2022-12-15T00:32:20.031Z,26.30
2022-12-15T00:35:04.869Z,29.15
2022-12-15T00:37:49.885Z,25.58
2022-12-15T00:40:17.482Z,27.35
2022-12-15T00:42:45.020Z,26.08
2022-12-15T00:45:17.265Z,24.88
2022-12-15T00:47:43.774Z,23.80
2022-12-15T00:50:30.769Z,25.08
2022-12-15T00:53:16.051Z,29.75
2022-12-15T00:56:01.062Z,31.75
2022-12-15T00:58:46.472Z,23.15
2022-12-15T01:01:31.585Z,23.30
2022-12-15T01:04:16.538Z,23.92
2022-12-15T01:07:01.693Z,30.65
2022-12-15T01:09:46.792Z,23.80
2022-12-15T01:12:31.757Z,27.63
2022-12-15T01:15:16.632Z,26.48
2022-12-15T01:18:01.583Z,22.58
2022-12-15T01:20:32.668Z,23.98
2022-12-15T01:23:00.252Z,31.77
2022-12-15T01:25:29.053Z,28.17
2022-12-15T01:27:56.675Z,25.23
2022-12-15T01:30:26.795Z,26.73
2022-12-15T01:32:54.647Z,27.60
2022-12-15T01:35:22.447Z,30.90
2022-12-15T01:37:50.370Z,27.88
2022-12-15T01:40:37.662Z,27.35
2022-12-15T01:43:10.610Z,26.42
2022-12-15T01:45:58.857Z,27.20
2022-12-15T01:48:35.238Z,23.20
2022-12-15T01:51:11.441Z,29.10
2022-12-15T01:53:44.454Z,28.17
2022-12-15T01:56:12.948Z,26.02
2022-12-15T01:58:44.522Z,26.88
2022-12-15T02:01:12.407Z,28.20
2022-12-15T02:03:40.776Z,23.23
2022-12-15T02:06:09.677Z,22.70
2022-12-15T02:08:38.501Z,24.75
2022-12-15T02:11:05.986Z,30.92
2022-12-15T02:13:57.055Z,25.88
2022-12-15T02:16:35.003Z,29.33
2022-12-15T02:19:30.884Z,29.17
2022-12-15T02:22:51.955Z,30.25
2022-12-15T02:25:23.737Z,28.05
2022-12-15T02:28:08.501Z,25.08
2022-12-15T02:30:41.890Z,27.52
2022-12-15T02:33:21.773Z,30.00
2022-12-15T02:36:01.660Z,23.17
2022-12-15T02:38:37.537Z,31.30
2022-12-15T02:41:07.547Z,27.85
2022-12-15T02:43:39.909Z,25.50
2022-12-15T02:49:01.556Z,26.88
2022-12-15T02:52:12.185Z,23.08
2022-12-15T02:54:47.165Z,26.38
2022-12-15T02:57:25.900Z,29.10
2022-12-15T03:00:00.175Z,28.80
2022-12-15T03:02:31.769Z,28.85
2022-12-15T03:05:00.129Z,28.60
2022-12-15T03:07:28.849Z,28.77
2022-12-15T03:09:58.291Z,32.90
2022-12-15T03:12:25.813Z,31.02
2022-12-15T03:14:53.319Z,26.55
2022-12-15T03:17:21.258Z,32.00
2022-12-15T03:19:49.732Z,24.65
2022-12-15T03:22:17.546Z,30.45
2022-12-15T03:24:45.089Z,23.27
2022-12-15T03:27:13.093Z,32.03
2022-12-15T03:29:40.770Z,24.95
2022-12-15T03:32:08.565Z,22.42
2022-12-15T03:34:36.228Z,33.33
2022-12-15T03:37:03.812Z,30.23
2022-12-15T03:39:31.419Z,31.50
2022-12-15T03:41:59.065Z,22.65
2022-12-15T03:44:26.731Z,31.92
2022-12-15T03:46:57.232Z,26.73
2022-12-15T03:49:28.981Z,26.85
2022-12-15T03:51:56.651Z,25.77
2022-12-15T03:54:24.134Z,26.00
2022-12-15T03:56:51.663Z,33.72
2022-12-15T03:59:20.038Z,25.70
2022-12-15T04:01:49.201Z,23.30
2022-12-15T04:04:16.991Z,31.17
2022-12-15T04:06:44.510Z,26.25
2022-12-15T04:09:12.092Z,25.85
2022-12-15T04:11:39.573Z,25.98
2022-12-15T04:14:07.102Z,28.35
2022-12-15T04:16:34.711Z,30.58
2022-12-15T04:19:19.599Z,31.20
2022-12-15T04:21:47.119Z,31.95
2022-12-15T04:24:32.103Z,26.50
2022-12-15T04:27:16.758Z,27.83
2022-12-15T04:30:01.492Z,22.88
2022-12-15T04:32:49.996Z,22.08
2022-12-15T04:35:35.810Z,23.17
2022-12-15T04:38:21.033Z,21.88
2022-12-15T04:41:06.452Z,23.73
2022-12-15T04:43:51.256Z,27.73
2022-12-15T04:46:36.184Z,36.60
2022-12-15T04:49:21.348Z,23.33
2022-12-15T04:52:06.083Z,29.52
2022-12-15T04:54:50.872Z,23.95
2022-12-15T04:57:35.785Z,25.77
2022-12-15T05:00:20.841Z,29.15
2022-12-15T05:03:05.605Z,21.73
2022-12-15T05:05:50.483Z,23.48
2022-12-15T05:08:35.969Z,32.88
2022-12-15T05:11:20.738Z,24.15
2022-12-15T05:14:05.652Z,32.10
2022-12-15T05:16:50.478Z,25.75
2022-12-15T05:19:35.542Z,29.48
2022-12-15T05:22:20.317Z,25.00
2022-12-15T05:25:05.142Z,28.05
2022-12-15T05:27:49.832Z,26.88
2022-12-15T05:30:35.431Z,30.67
2022-12-15T05:33:06.989Z,25.58
2022-12-15T05:35:34.548Z,27.33
2022-12-15T05:38:02.184Z,25.45
2022-12-15T05:40:29.686Z,25.85
2022-12-15T05:43:00.041Z,25.90
2022-12-15T05:45:28.874Z,25.15
2022-12-15T05:47:56.910Z,24.27
2022-12-15T05:50:24.737Z,25.52
2022-12-15T05:52:52.286Z,29.60
2022-12-15T05:55:20.580Z,29.98
2022-12-15T05:57:55.313Z,26.98
2022-12-15T06:00:22.962Z,47.97
2022-12-15T06:02:50.606Z,25.85
2022-12-15T06:05:18.779Z,24.27
2022-12-15T06:07:46.450Z,29.05
2022-12-15T06:10:13.990Z,22.98
2022-12-15T06:12:41.618Z,27.88
2022-12-15T06:15:09.645Z,26.25
2022-12-15T06:17:37.273Z,25.48
2022-12-15T06:20:05.227Z,27.80
2022-12-15T06:22:32.768Z,23.67
2022-12-15T06:25:00.375Z,28.45
2022-12-15T06:27:28.003Z,32.60
2022-12-15T06:29:55.571Z,25.00
2022-12-15T06:32:23.200Z,27.27
2022-12-15T06:34:50.655Z,23.27
2022-12-15T06:37:18.184Z,30.17
2022-12-15T06:39:46.037Z,23.38
2022-12-15T06:42:14.611Z,29.98
2022-12-15T06:44:42.081Z,28.30
2022-12-15T06:47:09.642Z,30.45
2022-12-15T06:49:37.275Z,32.13
2022-12-15T06:52:04.853Z,35.40
2022-12-15T06:54:32.404Z,32.30
2022-12-15T06:56:59.904Z,28.48
2022-12-15T06:59:27.584Z,29.80
2022-12-15T07:01:55.294Z,28.92
2022-12-15T07:04:23.010Z,25.08
2022-12-15T07:06:50.615Z,28.70
2022-12-15T07:09:18.388Z,32.03
2022-12-15T07:11:49.314Z,32.65
2022-12-15T07:14:16.897Z,29.13
2022-12-15T07:16:45.607Z,31.40
2022-12-15T07:19:13.857Z,29.52
2022-12-15T07:21:42.408Z,30.38
2022-12-15T07:24:12.928Z,31.40
2022-12-15T07:26:41.807Z,33.28
2022-12-15T07:29:09.350Z,27.15
2022-12-15T07:31:36.953Z,31.58
2022-12-15T07:34:04.650Z,37.97
2022-12-15T07:36:32.401Z,35.53
2022-12-15T07:39:01.894Z,33.33
2022-12-15T07:41:30.205Z,28.65
2022-12-15T07:43:59.056Z,29.25
2022-12-15T07:46:27.392Z,31.88
2022-12-15T07:48:54.978Z,26.35
2022-12-15T07:51:23.267Z,28.92
2022-12-15T07:53:51.806Z,38.38
2022-12-15T07:56:21.463Z,31.88
2022-12-15T07:58:49.502Z,31.10
2022-12-15T08:01:17.918Z,26.17
2022-12-15T08:03:46.151Z,28.25
2022-12-15T08:06:15.841Z,29.67
2022-12-15T08:08:49.973Z,31.95
2022-12-15T08:11:18.556Z,38.08
2022-12-15T08:14:03.668Z,30.88
2022-12-15T08:16:34.666Z,32.40
2022-12-15T08:19:02.868Z,35.63
2022-12-15T08:21:31.328Z,29.23
2022-12-15T08:24:00.760Z,28.95
2022-12-15T08:26:31.286Z,34.45
2022-12-15T08:29:48.818Z,30.17
2022-12-15T08:31:53.052Z,31.80
2022-12-15T08:34:21.566Z,43.97
2022-12-15T08:36:49.142Z,34.70
2022-12-15T08:39:16.964Z,38.10
2022-12-15T08:41:44.544Z,40.65
2022-12-15T08:44:12.081Z,36.30
2022-12-15T08:46:39.883Z,27.15
2022-12-15T08:49:08.677Z,34.85
2022-12-15T08:51:36.306Z,29.73
2022-12-15T08:54:03.981Z,34.08
2022-12-15T08:56:31.640Z,34.03
2022-12-15T08:59:02.083Z,32.33
2022-12-15T09:01:32.269Z,30.65
2022-12-15T09:04:01.414Z,36.97
2022-12-15T09:06:34.410Z,36.40
2022-12-15T09:09:04.977Z,35.92
2022-12-15T09:11:33.412Z,32.28
2022-12-15T09:14:01.404Z,47.22
2022-12-15T09:16:29.182Z,30.95
2022-12-15T09:18:59.157Z,36.63
2022-12-15T09:21:29.171Z,31.92
2022-12-15T09:24:01.990Z,37.45
2022-12-15T09:26:32.137Z,35.92
2022-12-15T09:29:00.181Z,34.90
2022-12-15T09:31:30.676Z,32.25
2022-12-15T09:34:00.809Z,30.65
2022-12-15T09:36:30.320Z,35.60
2022-12-15T09:38:57.937Z,30.48
2022-12-15T09:41:31.435Z,30.05
2022-12-15T09:44:04.098Z,35.65
2022-12-15T09:47:16.254Z,30.80
2022-12-15T09:49:59.148Z,33.38
2022-12-15T09:52:30.048Z,29.38
2022-12-15T09:54:59.489Z,32.42
2022-12-15T09:57:37.940Z,30.70
2022-12-15T10:00:07.361Z,37.05
2022-12-15T10:02:51.034Z,27.27
2022-12-15T10:06:06.170Z,42.78
2022-12-15T10:08:39.255Z,28.23
2022-12-15T10:11:29.454Z,35.38
2022-12-15T10:14:12.238Z,24.35
2022-12-15T10:16:52.713Z,26.35
2022-12-15T10:19:32.342Z,27.30
2022-12-15T10:22:00.108Z,23.83
2022-12-15T10:25:07.913Z,26.55
2022-12-15T10:27:27.048Z,29.38
2022-12-15T10:30:01.107Z,28.30
2022-12-15T10:32:51.445Z,27.15
2022-12-15T10:35:23.778Z,28.92
2022-12-15T10:37:51.444Z,24.52
2022-12-15T10:40:20.955Z,28.70
2022-12-15T10:42:51.332Z,26.15
2022-12-15T10:45:40.252Z,26.30
2022-12-15T10:48:21.399Z,28.48
2022-12-15T10:50:50.153Z,27.15
2022-12-15T10:53:40.865Z,31.38
2022-12-15T10:56:09.256Z,28.70
2022-12-15T10:58:50.261Z,23.20
2022-12-15T11:01:21.377Z,27.55
2022-12-15T11:03:52.752Z,27.17
2022-12-15T11:06:27.156Z,26.20
2022-12-15T11:08:58.021Z,25.13
2022-12-15T11:11:47.337Z,31.70
2022-12-15T11:14:24.549Z,24.67
2022-12-15T11:16:57.866Z,34.97
2022-12-15T11:19:28.512Z,36.53
2022-12-15T11:22:01.065Z,28.20
2022-12-15T11:24:41.394Z,34.30
2022-12-15T11:27:20.743Z,39.28
2022-12-15T11:30:01.081Z,26.88
2022-12-15T11:32:33.593Z,27.80
2022-12-15T11:37:46.430Z,24.92
2022-12-15T11:40:36.344Z,32.90
2022-12-15T11:43:18.901Z,31.83
2022-12-15T11:48:21.180Z,29.40
2022-12-15T11:53:46.941Z,24.35
2022-12-15T11:56:30.976Z,27.10
2022-12-15T11:59:19.156Z,30.27
2022-12-15T12:02:08.090Z,26.08
2022-12-15T12:04:54.049Z,25.17
2022-12-15T12:07:42.661Z,37.30
2022-12-15T12:10:10.289Z,24.83
2022-12-15T12:12:50.804Z,28.60
2022-12-15T12:15:32.993Z,28.67
2022-12-15T12:18:10.792Z,25.77
2022-12-15T12:20:44.471Z,23.35
2022-12-15T12:23:21.453Z,28.13
2022-12-15T12:26:04.555Z,27.63
2022-12-15T12:28:43.989Z,26.48
2022-12-15T12:31:39.554Z,22.77
2022-12-15T12:34:14.938Z,25.13
2022-12-15T12:36:45.810Z,25.00
2022-12-15T12:39:24.317Z,26.20
2022-12-15T12:42:01.982Z,29.33
2022-12-15T12:44:38.719Z,26.45
2022-12-15T12:47:21.316Z,28.80
2022-12-15T12:52:32.319Z,26.52
2022-12-15T12:55:05.901Z,23.27
2022-12-15T12:57:41.570Z,21.98
2022-12-15T13:00:09.042Z,27.30
2022-12-15T13:02:38.116Z,25.08
2022-12-15T13:05:25.999Z,24.95
2022-12-15T13:08:07.286Z,23.90
2022-12-15T13:10:40.766Z,25.35
2022-12-15T13:13:17.518Z,26.70
2022-12-15T13:15:51.259Z,27.27
2022-12-15T13:18:24.724Z,20.23
2022-12-15T13:20:57.166Z,22.00
2022-12-15T13:26:13.411Z,21.63
2022-12-15T13:28:45.906Z,28.02
2022-12-15T13:31:20.738Z,26.60
2022-12-15T13:33:51.576Z,27.27
2022-12-15T13:36:38.431Z,28.50
2022-12-15T13:39:26.446Z,26.23
2022-12-15T13:44:48.592Z,30.80
2022-12-15T13:47:17.757Z,35.03
2022-12-15T13:50:03.603Z,28.63
2022-12-15T13:55:39.257Z,28.00
2022-12-15T13:58:17.434Z,25.80
2022-12-15T14:00:59.028Z,21.38
2022-12-15T14:03:26.882Z,29.77
2022-12-15T14:05:58.562Z,23.25
2022-12-15T14:08:30.102Z,24.85
2022-12-15T14:13:54.311Z,26.17
2022-12-15T14:16:24.516Z,22.10
2022-12-15T14:19:15.949Z,28.02
2022-12-15T14:21:55.517Z,20.02
2022-12-15T14:24:39.622Z,25.65
2022-12-15T14:27:07.939Z,25.13
2022-12-15T14:29:35.612Z,26.00
2022-12-15T14:32:03.706Z,19.65
2022-12-15T14:34:37.103Z,25.70
2022-12-15T14:37:09.969Z,25.60
2022-12-15T14:39:43.497Z,23.40
2022-12-15T14:42:19.777Z,36.50
2022-12-15T14:44:52.053Z,24.10
2022-12-15T14:47:28.503Z,23.85
2022-12-15T14:49:58.677Z,27.27
2022-12-15T14:52:32.133Z,27.38
2022-12-15T14:55:02.344Z,30.05
2022-12-15T14:57:39.106Z,29.40
2022-12-15T15:00:49.823Z,33.75
2022-12-15T15:06:01.476Z,40.13
2022-12-15T15:08:32.621Z,28.20
2022-12-15T15:11:20.253Z,37.50
2022-12-15T15:13:48.413Z,27.48
2022-12-15T15:16:18.853Z,28.70
2022-12-15T15:18:52.226Z,24.80
2022-12-15T15:21:23.864Z,26.08
2022-12-15T15:24:21.773Z,34.60
2022-12-15T15:26:49.499Z,31.27
2022-12-15T15:29:40.979Z,32.72
2022-12-15T15:32:17.677Z,35.65
2022-12-15T15:34:47.035Z,38.95
2022-12-15T15:37:22.244Z,37.40
2022-12-15T15:39:51.548Z,43.63
2022-12-15T15:42:19.170Z,43.25
2022-12-15T15:44:46.700Z,36.97
2022-12-15T15:47:32.135Z,36.60
2022-12-15T15:50:00.801Z,41.10
2022-12-15T15:52:32.002Z,38.83
2022-12-15T15:55:00.415Z,38.05
2022-12-15T15:57:27.930Z,42.47
2022-12-15T15:59:55.578Z,40.72
2022-12-15T16:02:23.488Z,40.75
2022-12-15T16:04:51.218Z,39.35
2022-12-15T16:07:26.638Z,37.53
2022-12-15T16:09:55.181Z,35.97
2022-12-15T16:12:50.823Z,42.03
2022-12-15T16:15:21.675Z,41.97
2022-12-15T16:17:49.326Z,43.55
2022-12-15T16:20:19.241Z,34.60
2022-12-15T16:22:50.948Z,39.70
2022-12-15T16:25:28.423Z,35.88
2022-12-15T16:27:55.952Z,43.80
2022-12-15T16:30:26.072Z,43.75
2022-12-15T16:32:54.668Z,55.70
2022-12-15T16:35:27.235Z,45.20
2022-12-15T16:37:54.796Z,48.15
2022-12-15T16:40:28.256Z,47.53
2022-12-15T16:43:01.299Z,42.95
2022-12-15T16:45:31.856Z,50.95
2022-12-15T16:47:59.683Z,41.53
2022-12-15T16:50:37.708Z,45.67
2022-12-15T16:53:06.025Z,42.58
2022-12-15T16:55:39.913Z,41.70
2022-12-15T16:58:08.085Z,57.53
2022-12-15T17:00:36.597Z,44.38
2022-12-15T17:03:04.780Z,47.05
2022-12-15T17:05:34.667Z,45.30
2022-12-15T17:08:05.523Z,57.67
2022-12-15T17:10:34.282Z,45.13
2022-12-15T17:13:08.438Z,50.38
2022-12-15T17:15:39.842Z,53.58
2022-12-15T17:18:15.020Z,46.67
2022-12-15T17:20:43.753Z,53.45
2022-12-15T17:23:18.470Z,52.50
2022-12-15T17:28:37.675Z,46.85
2022-12-15T17:31:05.332Z,45.97
2022-12-15T17:33:35.814Z,51.75
2022-12-15T17:36:09.500Z,55.38
2022-12-15T17:38:37.068Z,49.97
2022-12-15T17:41:04.652Z,48.75
2022-12-15T17:43:35.906Z,55.63
2022-12-15T17:46:03.983Z,52.55
2022-12-15T17:48:31.630Z,48.33
2022-12-15T17:50:59.922Z,50.67
2022-12-15T17:53:27.610Z,45.83
2022-12-15T17:55:55.335Z,44.97
2022-12-15T17:58:25.796Z,49.38
2022-12-15T18:00:55.746Z,50.38
2022-12-15T18:03:24.907Z,43.67
2022-12-15T18:05:54.214Z,46.25
2022-12-15T18:08:25.364Z,46.22
2022-12-15T18:10:55.661Z,51.95
2022-12-15T18:13:30.351Z,50.22
2022-12-15T18:16:02.766Z,55.15
2022-12-15T18:18:30.594Z,60.67
2022-12-15T18:21:02.520Z,56.05
2022-12-15T18:23:32.182Z,46.47
2022-12-15T18:26:03.175Z,55.08
2022-12-15T18:28:34.480Z,54.25
2022-12-15T18:31:14.753Z,61.78
2022-12-15T18:33:42.309Z,56.55
2022-12-15T18:36:10.477Z,75.47
2022-12-15T18:38:38.340Z,60.38
2022-12-15T18:41:06.946Z,57.53
2022-12-15T18:43:36.069Z,54.50
2022-12-15T18:46:03.818Z,56.85
2022-12-15T18:48:34.960Z,53.85
2022-12-15T18:51:03.680Z,56.60
2022-12-15T18:53:35.342Z,56.15
2022-12-15T18:56:06.044Z,63.88
2022-12-15T18:58:39.401Z,60.67
2022-12-15T19:01:08.377Z,62.25
2022-12-15T19:03:38.233Z,63.53
2022-12-15T19:06:23.949Z,66.43
2022-12-15T19:08:53.358Z,72.60
2022-12-15T19:11:30.954Z,58.97
2022-12-15T19:14:04.002Z,62.00
2022-12-15T19:16:51.655Z,61.60
2022-12-15T19:19:36.851Z,69.53
2022-12-15T19:22:29.983Z,69.78
2022-12-15T19:24:58.537Z,61.95
2022-12-15T19:27:27.137Z,65.28
2022-12-15T19:29:55.895Z,66.25
2022-12-15T19:32:24.150Z,68.03
2022-12-15T19:34:51.705Z,67.80
2022-12-15T19:37:31.548Z,65.47
2022-12-15T19:40:01.813Z,65.60
2022-12-15T19:42:37.731Z,63.75
2022-12-15T19:45:32.760Z,66.55
2022-12-15T19:48:00.992Z,57.22
2022-12-15T19:50:36.600Z,67.00
2022-12-15T19:53:10.835Z,63.45
2022-12-15T19:55:38.490Z,62.47
2022-12-15T19:58:25.257Z,62.97
2022-12-15T20:00:55.801Z,61.33
2022-12-15T20:03:23.647Z,61.15
2022-12-15T20:05:52.957Z,60.75
2022-12-15T20:08:26.541Z,66.25
2022-12-15T20:10:55.689Z,62.13
2022-12-15T20:13:26.427Z,71.55
2022-12-15T20:15:55.201Z,63.63
2022-12-15T20:18:22.883Z,63.85
2022-12-15T20:20:51.073Z,64.57
2022-12-15T20:23:20.451Z,65.88
2022-12-15T20:25:50.781Z,65.45
2022-12-15T20:28:23.292Z,69.88
2022-12-15T20:33:19.344Z,61.92
2022-12-15T20:35:49.391Z,60.03
2022-12-15T20:38:25.153Z,65.53
2022-12-15T20:40:54.018Z,59.40
2022-12-15T20:43:23.400Z,65.47
2022-12-15T20:45:59.060Z,80.90
2022-12-15T20:48:26.848Z,63.55
2022-12-15T20:50:54.462Z,60.03
2022-12-15T20:53:25.280Z,64.15
2022-12-15T20:55:55.034Z,63.95
2022-12-15T20:58:27.010Z,62.13
2022-12-15T21:00:55.894Z,62.90
2022-12-15T21:03:28.355Z,52.40
2022-12-15T21:08:28.473Z,58.15
2022-12-15T21:11:00.868Z,59.72
2022-12-15T21:15:59.145Z,65.05
2022-12-15T21:19:03.911Z,63.08
2022-12-15T21:21:26.169Z,58.38
2022-12-15T21:23:54.642Z,57.80
2022-12-15T21:26:23.933Z,61.20
2022-12-15T21:28:55.565Z,58.78
2022-12-15T21:31:23.675Z,59.47
2022-12-15T21:33:51.444Z,61.45
2022-12-15T21:36:21.334Z,61.92
2022-12-15T21:38:51.906Z,55.63
2022-12-15T21:41:22.065Z,60.05
2022-12-15T21:43:50.815Z,53.40
2022-12-15T21:46:26.079Z,50.53
2022-12-15T21:49:13.940Z,59.05
2022-12-15T21:51:44.783Z,57.90
2022-12-15T21:54:19.392Z,52.53
2022-12-15T21:56:48.539Z,56.65
2022-12-15T21:59:21.659Z,54.72
2022-12-15T22:01:49.870Z,51.78
2022-12-15T22:04:22.128Z,50.88
2022-12-15T22:06:50.321Z,57.65
2022-12-15T22:09:18.968Z,58.67
2022-12-15T22:11:49.548Z,58.83
2022-12-15T22:14:27.233Z,57.85
2022-12-15T22:16:55.456Z,54.92
2022-12-15T22:19:23.351Z,55.03
2022-12-15T22:21:52.094Z,54.25
2022-12-15T22:24:19.833Z,58.83
2022-12-15T22:26:49.200Z,55.53
2022-12-15T22:29:22.496Z,55.90
2022-12-15T22:31:51.786Z,51.00
2022-12-15T22:34:24.606Z,53.30
2022-12-15T22:36:52.593Z,55.67
2022-12-15T22:39:22.485Z,61.25
2022-12-15T22:41:53.567Z,52.22
2022-12-15T22:44:28.429Z,56.55
2022-12-15T22:46:58.227Z,55.22
2022-12-15T22:49:31.195Z,52.05
2022-12-15T22:51:59.192Z,60.05
2022-12-15T22:54:29.353Z,55.83
2022-12-15T22:57:05.394Z,58.30
2022-12-15T22:59:41.154Z,56.90
2022-12-15T23:02:10.081Z,63.97
2022-12-15T23:04:37.813Z,52.35
2022-12-15T23:07:10.044Z,55.13
2022-12-15T23:09:37.810Z,51.80
2022-12-15T23:12:04.666Z,59.88
2022-12-15T23:14:54.742Z,61.95
2022-12-15T23:17:22.445Z,54.22
2022-12-15T23:19:49.960Z,57.63
2022-12-15T23:22:18.005Z,60.28
2022-12-15T23:24:45.829Z,54.90
2022-12-15T23:27:13.580Z,58.50
2022-12-15T23:29:41.123Z,49.40
2022-12-15T23:32:08.653Z,56.55
2022-12-15T23:34:36.177Z,55.13
2022-12-15T23:37:03.705Z,53.08
2022-12-15T23:39:31.592Z,61.03
2022-12-15T23:41:59.070Z,58.58
2022-12-15T23:44:26.609Z,55.05
2022-12-15T23:46:54.222Z,62.40
2022-12-15T23:49:21.805Z,62.08
2022-12-15T23:51:49.572Z,57.92
2022-12-15T23:54:17.089Z,62.95
2022-12-15T23:56:44.673Z,58.60
2022-12-15T23:59:12.233Z,57.10
